createdAt,value
2023-02-16T00:01:03.333Z,23.77
2023-02-16T00:06:14.322Z,23.07
2023-02-16T00:11:38.767Z,24.17
2023-02-16T00:16:44.319Z,24.90
2023-02-16T00:21:49.557Z,24.63
2023-02-16T00:26:58.055Z,23.63
2023-02-16T00:32:05.887Z,23.73
2023-02-16T00:37:15.517Z,21.63
2023-02-16T00:42:25.458Z,24.77
2023-02-16T00:47:35.281Z,24.03
2023-02-16T00:52:43.205Z,24.13
2023-02-16T00:57:53.362Z,23.87
2023-02-16T01:03:03.624Z,26.43
2023-02-16T01:08:26.382Z,27.23
2023-02-16T01:13:35.612Z,24.23
2023-02-16T01:18:41.304Z,25.23
2023-02-16T01:23:46.377Z,25.70
2023-02-16T01:28:54.373Z,25.20
2023-02-16T01:33:59.519Z,25.83
2023-02-16T01:39:07.305Z,23.20
2023-02-16T01:44:19.493Z,24.00
2023-02-16T01:49:24.945Z,24.27
2023-02-16T01:54:38.577Z,23.60
2023-02-16T02:00:09.989Z,24.60
2023-02-16T02:05:39.708Z,23.57
2023-02-16T02:10:53.292Z,23.33
2023-02-16T02:16:02.881Z,22.07
2023-02-16T02:21:43.966Z,22.33
2023-02-16T02:27:10.701Z,21.73
2023-02-16T02:32:28.131Z,22.47
2023-02-16T02:37:47.049Z,20.70
2023-02-16T02:43:03.979Z,21.43
2023-02-16T02:48:09.514Z,19.20
2023-02-16T02:53:18.878Z,20.90
2023-02-16T02:58:41.185Z,20.23
2023-02-16T03:03:50.582Z,21.40
2023-02-16T03:09:00.825Z,20.40
2023-02-16T03:14:13.546Z,20.77
2023-02-16T03:19:33.708Z,20.00
2023-02-16T03:24:51.244Z,18.60
2023-02-16T03:30:00.563Z,20.47
2023-02-16T03:35:05.727Z,18.70
2023-02-16T03:40:26.654Z,18.77
2023-02-16T03:45:35.647Z,19.60
2023-02-16T03:50:40.848Z,16.57
2023-02-16T03:55:48.491Z,16.70
2023-02-16T04:00:56.101Z,18.67
2023-02-16T04:06:01.009Z,18.93
2023-02-16T04:11:27.273Z,19.27
2023-02-16T04:16:35.127Z,18.27
2023-02-16T04:21:40.435Z,18.00
2023-02-16T04:26:46.007Z,19.10
2023-02-16T04:31:53.804Z,17.33
2023-02-16T04:36:59.017Z,18.27
2023-02-16T04:42:04.272Z,17.43
2023-02-16T04:47:13.460Z,19.10
2023-02-16T04:52:18.515Z,18.10
2023-02-16T04:57:24.391Z,16.63
2023-02-16T05:02:32.139Z,18.40
2023-02-16T05:07:37.096Z,16.27
2023-02-16T05:12:54.481Z,16.80
2023-02-16T05:18:02.435Z,21.00
2023-02-16T05:23:07.401Z,17.53
2023-02-16T05:28:12.517Z,18.50
2023-02-16T05:33:20.253Z,18.97
2023-02-16T05:38:25.154Z,19.70
2023-02-16T05:43:32.585Z,21.10
2023-02-16T05:48:40.281Z,21.70
2023-02-16T05:53:45.565Z,21.23
2023-02-16T05:58:50.644Z,21.30
2023-02-16T06:03:58.366Z,20.93
2023-02-16T06:09:03.399Z,19.57
2023-02-16T06:14:11.305Z,20.67
2023-02-16T06:19:20.508Z,19.13
2023-02-16T06:24:28.458Z,20.00
2023-02-16T06:29:33.777Z,20.63
2023-02-16T06:34:41.685Z,19.97
2023-02-16T06:39:49.859Z,20.57
2023-02-16T06:45:05.568Z,21.87
2023-02-16T06:50:15.216Z,18.93
2023-02-16T06:55:20.201Z,21.93
2023-02-16T07:00:25.616Z,19.33
2023-02-16T07:05:35.067Z,21.60
2023-02-16T07:10:49.460Z,24.27
2023-02-16T07:15:55.381Z,23.87
2023-02-16T07:21:03.491Z,22.93
2023-02-16T07:26:08.730Z,23.77
2023-02-16T07:31:16.813Z,22.17
2023-02-16T07:36:25.362Z,25.23
2023-02-16T07:41:32.252Z,20.03
2023-02-16T07:46:45.263Z,19.40
2023-02-16T07:51:55.583Z,19.87
2023-02-16T07:57:06.364Z,20.63
2023-02-16T08:02:27.876Z,18.80
2023-02-16T08:07:35.631Z,19.90
2023-02-16T08:12:41.885Z,19.93
2023-02-16T08:17:47.115Z,19.47
2023-02-16T08:23:21.366Z,19.23
2023-02-16T08:28:55.129Z,20.17
2023-02-16T08:34:30.677Z,18.57
2023-02-16T08:39:44.759Z,16.90
2023-02-16T08:44:54.885Z,16.23
2023-02-16T08:49:59.968Z,17.07
2023-02-16T08:55:04.878Z,17.70
2023-02-16T09:00:27.640Z,18.37
2023-02-16T09:05:32.692Z,19.77
2023-02-16T09:10:46.458Z,18.40
2023-02-16T09:16:01.037Z,17.13
2023-02-16T09:21:15.346Z,16.13
2023-02-16T09:26:22.346Z,18.23
2023-02-16T09:31:32.765Z,18.30
2023-02-16T09:36:53.282Z,17.37
2023-02-16T09:42:24.642Z,15.50
2023-02-16T09:47:36.417Z,16.60
2023-02-16T09:52:46.327Z,17.87
2023-02-16T09:58:01.779Z,18.27
2023-02-16T10:03:37.038Z,17.57
2023-02-16T10:09:23.792Z,18.27
2023-02-16T10:14:50.583Z,17.03
2023-02-16T10:20:02.264Z,17.97
2023-02-16T10:25:13.626Z,17.03
2023-02-16T10:30:21.647Z,17.87
2023-02-16T10:35:39.988Z,18.33
2023-02-16T10:40:53.331Z,17.50
2023-02-16T10:46:02.051Z,17.30
2023-02-16T10:51:14.396Z,18.43
2023-02-16T10:56:42.110Z,18.63
2023-02-16T11:01:50.124Z,14.47
2023-02-16T11:07:27.807Z,15.83
2023-02-16T11:12:43.650Z,13.83
2023-02-16T11:17:54.583Z,13.00
2023-02-16T11:23:24.603Z,14.00
2023-02-16T11:28:36.249Z,13.83
2023-02-16T11:33:42.349Z,14.67
2023-02-16T11:39:00.150Z,13.20
2023-02-16T11:44:06.904Z,14.00
2023-02-16T11:49:35.462Z,13.87
2023-02-16T11:54:51.986Z,13.73
2023-02-16T11:59:59.654Z,13.77
2023-02-16T12:05:30.959Z,14.13
2023-02-16T12:10:48.213Z,14.70
2023-02-16T12:16:04.753Z,14.43
2023-02-16T12:21:22.921Z,14.63
2023-02-16T12:26:42.938Z,16.30
2023-02-16T12:32:02.166Z,14.43
2023-02-16T12:37:17.827Z,13.83
2023-02-16T12:42:48.761Z,13.47
2023-02-16T12:48:01.564Z,13.47
2023-02-16T12:53:12.063Z,15.13
2023-02-16T12:58:26.463Z,13.90
2023-02-16T13:03:38.498Z,14.80
2023-02-16T13:08:54.233Z,15.77
2023-02-16T13:14:09.383Z,15.30
2023-02-16T13:19:16.622Z,15.27
2023-02-16T13:24:32.042Z,14.50
2023-02-16T13:30:00.475Z,15.47
2023-02-16T13:35:40.067Z,15.07
2023-02-16T13:41:06.732Z,15.43
2023-02-16T13:46:27.932Z,14.07
2023-02-16T13:51:47.047Z,15.47
2023-02-16T13:56:54.045Z,14.97
2023-02-16T14:02:02.456Z,16.47
2023-02-16T14:07:36.018Z,15.30
2023-02-16T14:12:44.543Z,14.20
2023-02-16T14:17:52.190Z,15.53
2023-02-16T14:23:00.277Z,15.30
2023-02-16T14:28:10.075Z,14.80
2023-02-16T14:33:25.797Z,13.87
2023-02-16T14:38:37.076Z,14.80
2023-02-16T14:43:45.169Z,14.20
2023-02-16T14:49:15.946Z,14.00
2023-02-16T14:54:55.060Z,13.43
2023-02-16T15:00:04.943Z,15.07
2023-02-16T15:05:25.124Z,17.97
2023-02-16T15:10:32.315Z,18.33
2023-02-16T15:15:47.122Z,18.87
2023-02-16T15:20:58.543Z,18.97
2023-02-16T15:26:08.118Z,19.83
2023-02-16T15:31:23.993Z,19.93
2023-02-16T15:36:38.835Z,19.70
2023-02-16T15:41:51.413Z,19.90
2023-02-16T15:47:09.828Z,18.73
2023-02-16T15:52:21.994Z,21.27
2023-02-16T15:57:33.811Z,21.80
2023-02-16T16:02:43.838Z,21.47
2023-02-16T16:07:52.804Z,22.37
2023-02-16T16:13:01.608Z,21.43
2023-02-16T16:18:06.884Z,22.07
2023-02-16T16:23:30.012Z,22.57
2023-02-16T16:28:38.140Z,23.17
2023-02-16T16:34:00.242Z,23.93
2023-02-16T16:39:25.534Z,23.23
2023-02-16T16:44:37.399Z,24.90
2023-02-16T16:49:53.810Z,23.77
2023-02-16T16:55:01.416Z,24.87
2023-02-16T17:00:07.564Z,26.17
2023-02-16T17:05:13.230Z,26.03
2023-02-16T17:10:24.777Z,24.87
2023-02-16T17:15:40.830Z,28.53
2023-02-16T17:20:48.239Z,25.60
2023-02-16T17:25:56.314Z,66.17
2023-02-16T17:31:01.339Z,39.90
2023-02-16T17:36:08.415Z,39.57
2023-02-16T17:41:23.551Z,30.80
2023-02-16T17:46:31.693Z,31.57
2023-02-16T17:51:38.319Z,44.87
2023-02-16T17:56:51.454Z,26.53
2023-02-16T18:01:56.508Z,23.30
2023-02-16T18:07:01.770Z,23.33
2023-02-16T18:12:11.906Z,26.33
2023-02-16T18:17:17.128Z,27.23
2023-02-16T18:22:22.231Z,30.63
2023-02-16T18:27:32.446Z,23.63
2023-02-16T18:32:38.843Z,27.23
2023-02-16T18:37:45.946Z,28.83
2023-02-16T18:42:53.961Z,37.53
2023-02-16T18:47:58.953Z,33.27
2023-02-16T18:53:04.299Z,41.30
2023-02-16T18:58:16.683Z,34.23
2023-02-16T19:03:22.085Z,27.27
2023-02-16T19:08:27.171Z,29.33
2023-02-16T19:13:38.115Z,25.70
2023-02-16T19:18:43.745Z,27.63
2023-02-16T19:23:50.351Z,27.00
2023-02-16T19:28:58.857Z,30.80
2023-02-16T19:34:05.533Z,30.17
2023-02-16T19:39:13.154Z,32.60
2023-02-16T19:44:21.305Z,37.23
2023-02-16T19:49:26.810Z,34.73
2023-02-16T19:54:32.767Z,27.30
2023-02-16T19:59:40.923Z,26.63
2023-02-16T20:04:46.969Z,26.67
2023-02-16T20:09:52.605Z,26.47
2023-02-16T20:15:00.505Z,27.97
2023-02-16T20:20:05.647Z,25.80
2023-02-16T20:25:13.622Z,26.50
2023-02-16T20:30:25.365Z,26.63
2023-02-16T20:35:30.445Z,27.63
2023-02-16T20:40:35.716Z,30.03
2023-02-16T20:45:46.223Z,26.87
2023-02-16T20:50:57.421Z,26.47
2023-02-16T20:56:08.290Z,28.27
2023-02-16T21:01:19.982Z,31.07
2023-02-16T21:06:25.817Z,27.47
2023-02-16T21:11:31.300Z,32.67
2023-02-16T21:16:41.238Z,31.30
2023-02-16T21:21:46.318Z,21.33
2023-02-16T21:26:51.398Z,24.77
2023-02-16T21:31:59.260Z,18.87
2023-02-16T21:37:06.458Z,16.10
2023-02-16T21:42:11.534Z,16.80
2023-02-16T21:47:32.277Z,16.70
2023-02-16T21:52:39.954Z,16.60
2023-02-16T21:57:45.291Z,15.30
2023-02-16T22:02:53.732Z,15.07
2023-02-16T22:07:58.890Z,16.67
2023-02-16T22:13:04.266Z,14.47
2023-02-16T22:18:11.919Z,14.83
2023-02-16T22:23:16.852Z,18.07
2023-02-16T22:28:21.804Z,20.13
2023-02-16T22:33:29.354Z,13.67
2023-02-16T22:38:34.555Z,13.10
2023-02-16T22:43:40.314Z,13.63
2023-02-16T22:48:47.966Z,12.40
2023-02-16T22:53:53.157Z,11.63
2023-02-16T22:58:58.297Z,12.87
2023-02-16T23:04:06.132Z,12.40
2023-02-16T23:09:15.863Z,12.57
2023-02-16T23:14:22.227Z,12.60
2023-02-16T23:19:30.082Z,12.87
2023-02-16T23:24:35.139Z,17.33
2023-02-16T23:29:40.312Z,12.77
2023-02-16T23:34:47.997Z,14.03
2023-02-16T23:39:53.148Z,12.50
2023-02-16T23:44:58.144Z,13.13
2023-02-16T23:50:05.636Z,11.47
2023-02-16T23:55:11.393Z,11.87
